sensor_id;sensor_type;location;lat;lon;timestamp;P1;durP1;ratioP1;P2;durP2;ratioP2
40787;SDS011;26497;52.494;7.546;2023-06-01T00:00:29;107.13;;;99.63;;
40787;SDS011;26497;52.494;7.546;2023-06-01T00:02:58;107.40;;;99.93;;
40787;SDS011;26497;52.494;7.546;2023-06-01T00:05:25;107.47;;;100.07;;
40787;SDS011;26497;52.494;7.546;2023-06-01T00:07:52;105.63;;;98.50;;
40787;SDS011;26497;52.494;7.546;2023-06-01T00:10:19;104.10;;;97.35;;
40787;SDS011;26497;52.494;7.546;2023-06-01T00:12:46;104.53;;;97.80;;
40787;SDS011;26497;52.494;7.546;2023-06-01T00:15:14;102.25;;;94.97;;
40787;SDS011;26497;52.494;7.546;2023-06-01T00:17:42;102.25;;;94.97;;
40787;SDS011;26497;52.494;7.546;2023-06-01T00:20:10;98.22;;;91.50;;
40787;SDS011;26497;52.494;7.546;2023-06-01T00:22:38;100.50;;;94.05;;
40787;SDS011;26497;52.494;7.546;2023-06-01T00:25:05;99.32;;;92.30;;
40787;SDS011;26497;52.494;7.546;2023-06-01T00:27:34;99.97;;;93.32;;
40787;SDS011;26497;52.494;7.546;2023-06-01T00:30:01;101.72;;;94.28;;
40787;SDS011;26497;52.494;7.546;2023-06-01T00:32:29;98.72;;;91.78;;
40787;SDS011;26497;52.494;7.546;2023-06-01T00:34:57;96.97;;;90.85;;
40787;SDS011;26497;52.494;7.546;2023-06-01T00:37:25;99.72;;;92.93;;
40787;SDS011;26497;52.494;7.546;2023-06-01T00:39:53;97.93;;;91.75;;
40787;SDS011;26497;52.494;7.546;2023-06-01T00:42:20;99.30;;;92.22;;
40787;SDS011;26497;52.494;7.546;2023-06-01T00:44:47;578.03;;;322.25;;
40787;SDS011;26497;52.494;7.546;2023-06-01T00:47:14;1999.90;;;999.90;;
40787;SDS011;26497;52.494;7.546;2023-06-01T00:49:42;1999.90;;;999.90;;
40787;SDS011;26497;52.494;7.546;2023-06-01T00:52:09;1999.90;;;999.90;;
40787;SDS011;26497;52.494;7.546;2023-06-01T00:54:38;1999.90;;;999.90;;
40787;SDS011;26497;52.494;7.546;2023-06-01T00:57:06;1999.90;;;999.90;;
40787;SDS011;26497;52.494;7.546;2023-06-01T00:59:34;1999.90;;;999.90;;
40787;SDS011;26497;52.494;7.546;2023-06-01T01:02:02;1999.90;;;999.90;;
40787;SDS011;26497;52.494;7.546;2023-06-01T01:04:29;1999.90;;;999.90;;
40787;SDS011;26497;52.494;7.546;2023-06-01T01:07:00;1999.90;;;999.90;;
40787;SDS011;26497;52.494;7.546;2023-06-01T01:09:49;99.47;;;92.85;;
40787;SDS011;26497;52.494;7.546;2023-06-01T01:12:26;572.60;;;317.58;;
40787;SDS011;26497;52.494;7.546;2023-06-01T01:15:01;1999.90;;;999.90;;
40787;SDS011;26497;52.494;7.546;2023-06-01T01:17:36;1999.90;;;999.90;;
40787;SDS011;26497;52.494;7.546;2023-06-01T01:20:08;1999.90;;;999.90;;
40787;SDS011;26497;52.494;7.546;2023-06-01T01:28:43;1999.90;;;999.90;;
40787;SDS011;26497;52.494;7.546;2023-06-01T01:31:16;1999.90;;;999.90;;
40787;SDS011;26497;52.494;7.546;2023-06-01T01:33:45;1999.90;;;999.90;;
40787;SDS011;26497;52.494;7.546;2023-06-01T01:36:13;1999.90;;;999.90;;
40787;SDS011;26497;52.494;7.546;2023-06-01T01:38:43;1999.90;;;999.90;;
40787;SDS011;26497;52.494;7.546;2023-06-01T01:41:10;1999.90;;;999.90;;
40787;SDS011;26497;52.494;7.546;2023-06-01T01:43:37;1999.90;;;999.90;;
40787;SDS011;26497;52.494;7.546;2023-06-01T01:46:13;1999.90;;;999.90;;
40787;SDS011;26497;52.494;7.546;2023-06-01T01:48:50;1999.90;;;999.90;;
40787;SDS011;26497;52.494;7.546;2023-06-01T01:51:35;1999.90;;;999.90;;
40787;SDS011;26497;52.494;7.546;2023-06-01T01:54:22;1999.90;;;999.90;;
40787;SDS011;26497;52.494;7.546;2023-06-01T01:56:51;1999.90;;;999.90;;
40787;SDS011;26497;52.494;7.546;2023-06-01T01:59:23;1999.90;;;999.90;;
40787;SDS011;26497;52.494;7.546;2023-06-01T02:01:53;1999.90;;;999.90;;
40787;SDS011;26497;52.494;7.546;2023-06-01T02:04:21;1999.90;;;999.90;;
40787;SDS011;26497;52.494;7.546;2023-06-01T02:06:48;1999.90;;;999.90;;
40787;SDS011;26497;52.494;7.546;2023-06-01T02:09:15;1999.90;;;999.90;;
40787;SDS011;26497;52.494;7.546;2023-06-01T02:11:42;1999.90;;;999.90;;
40787;SDS011;26497;52.494;7.546;2023-06-01T02:14:10;1999.90;;;999.90;;
40787;SDS011;26497;52.494;7.546;2023-06-01T02:16:37;1999.90;;;999.90;;
40787;SDS011;26497;52.494;7.546;2023-06-01T02:19:05;1999.90;;;999.90;;
40787;SDS011;26497;52.494;7.546;2023-06-01T02:21:36;1999.90;;;999.90;;
40787;SDS011;26497;52.494;7.546;2023-06-01T02:24:03;1999.90;;;999.90;;
40787;SDS011;26497;52.494;7.546;2023-06-01T02:26:32;1999.90;;;999.90;;
40787;SDS011;26497;52.494;7.546;2023-06-01T02:28:59;1999.90;;;999.90;;
40787;SDS011;26497;52.494;7.546;2023-06-01T02:31:30;1999.90;;;999.90;;
40787;SDS011;26497;52.494;7.546;2023-06-01T02:33:57;1999.90;;;999.90;;
40787;SDS011;26497;52.494;7.546;2023-06-01T02:36:26;1999.90;;;999.90;;
40787;SDS011;26497;52.494;7.546;2023-06-01T02:38:54;1999.90;;;999.90;;
40787;SDS011;26497;52.494;7.546;2023-06-01T02:41:22;1999.90;;;999.90;;
40787;SDS011;26497;52.494;7.546;2023-06-01T02:43:50;1999.90;;;999.90;;
40787;SDS011;26497;52.494;7.546;2023-06-01T02:46:17;1999.90;;;999.90;;
40787;SDS011;26497;52.494;7.546;2023-06-01T02:48:45;1999.90;;;999.90;;
40787;SDS011;26497;52.494;7.546;2023-06-01T02:51:12;1999.90;;;999.90;;
40787;SDS011;26497;52.494;7.546;2023-06-01T02:53:41;1999.90;;;999.90;;
40787;SDS011;26497;52.494;7.546;2023-06-01T02:56:08;1999.90;;;999.90;;
40787;SDS011;26497;52.494;7.546;2023-06-01T02:58:36;1999.90;;;999.90;;
40787;SDS011;26497;52.494;7.546;2023-06-01T03:01:03;1999.90;;;999.90;;
40787;SDS011;26497;52.494;7.546;2023-06-01T03:03:30;1999.90;;;999.90;;
40787;SDS011;26497;52.494;7.546;2023-06-01T03:05:57;1999.90;;;999.90;;
40787;SDS011;26497;52.494;7.546;2023-06-01T03:08:24;1999.90;;;999.90;;
40787;SDS011;26497;52.494;7.546;2023-06-01T03:10:53;1999.90;;;999.90;;
40787;SDS011;26497;52.494;7.546;2023-06-01T03:13:20;1999.90;;;999.90;;
40787;SDS011;26497;52.494;7.546;2023-06-01T03:15:47;1999.90;;;999.90;;
40787;SDS011;26497;52.494;7.546;2023-06-01T03:18:15;1999.90;;;999.90;;
40787;SDS011;26497;52.494;7.546;2023-06-01T03:20:42;1999.90;;;999.90;;
40787;SDS011;26497;52.494;7.546;2023-06-01T03:23:14;1999.90;;;999.90;;
40787;SDS011;26497;52.494;7.546;2023-06-01T03:25:42;1999.90;;;999.90;;
40787;SDS011;26497;52.494;7.546;2023-06-01T03:28:13;1999.90;;;999.90;;
40787;SDS011;26497;52.494;7.546;2023-06-01T03:30:41;1999.90;;;999.90;;
40787;SDS011;26497;52.494;7.546;2023-06-01T03:33:08;1999.90;;;999.90;;
40787;SDS011;26497;52.494;7.546;2023-06-01T03:35:35;1999.90;;;999.90;;
40787;SDS011;26497;52.494;7.546;2023-06-01T03:38:03;1999.90;;;999.90;;
40787;SDS011;26497;52.494;7.546;2023-06-01T03:40:30;1999.90;;;999.90;;
40787;SDS011;26497;52.494;7.546;2023-06-01T03:42:57;1999.90;;;999.90;;
40787;SDS011;26497;52.494;7.546;2023-06-01T03:45:25;1999.90;;;999.90;;
40787;SDS011;26497;52.494;7.546;2023-06-01T03:47:53;1999.90;;;999.90;;
40787;SDS011;26497;52.494;7.546;2023-06-01T03:50:29;1999.90;;;999.90;;
40787;SDS011;26497;52.494;7.546;2023-06-01T03:52:56;1999.90;;;999.90;;
40787;SDS011;26497;52.494;7.546;2023-06-01T03:55:24;1999.90;;;999.90;;
40787;SDS011;26497;52.494;7.546;2023-06-01T03:57:51;1999.90;;;999.90;;
40787;SDS011;26497;52.494;7.546;2023-06-01T04:00:19;1999.90;;;999.90;;
40787;SDS011;26497;52.494;7.546;2023-06-01T04:02:50;1999.90;;;999.90;;
40787;SDS011;26497;52.494;7.546;2023-06-01T04:05:20;1999.90;;;999.90;;
40787;SDS011;26497;52.494;7.546;2023-06-01T04:07:48;1999.90;;;999.90;;
40787;SDS011;26497;52.494;7.546;2023-06-01T04:10:18;1999.90;;;999.90;;
40787;SDS011;26497;52.494;7.546;2023-06-01T04:12:46;1999.90;;;999.90;;
40787;SDS011;26497;52.494;7.546;2023-06-01T04:15:15;1999.90;;;999.90;;
40787;SDS011;26497;52.494;7.546;2023-06-01T04:17:43;1999.90;;;999.90;;
40787;SDS011;26497;52.494;7.546;2023-06-01T04:20:13;1999.90;;;999.90;;
40787;SDS011;26497;52.494;7.546;2023-06-01T04:22:42;1999.90;;;999.90;;
40787;SDS011;26497;52.494;7.546;2023-06-01T04:25:11;1999.90;;;999.90;;
40787;SDS011;26497;52.494;7.546;2023-06-01T04:27:42;1999.90;;;999.90;;
40787;SDS011;26497;52.494;7.546;2023-06-01T04:30:12;1999.90;;;999.90;;
40787;SDS011;26497;52.494;7.546;2023-06-01T04:32:41;1999.90;;;999.90;;
40787;SDS011;26497;52.494;7.546;2023-06-01T04:35:09;1999.90;;;999.90;;
40787;SDS011;26497;52.494;7.546;2023-06-01T04:37:38;1999.90;;;999.90;;
40787;SDS011;26497;52.494;7.546;2023-06-01T04:40:07;1999.90;;;999.90;;
40787;SDS011;26497;52.494;7.546;2023-06-01T04:42:37;1999.90;;;999.90;;
40787;SDS011;26497;52.494;7.546;2023-06-01T04:45:07;1999.90;;;999.90;;
40787;SDS011;26497;52.494;7.546;2023-06-01T04:47:35;1999.90;;;999.90;;
40787;SDS011;26497;52.494;7.546;2023-06-01T04:50:05;1999.90;;;999.90;;
40787;SDS011;26497;52.494;7.546;2023-06-01T04:52:41;1999.90;;;999.90;;
40787;SDS011;26497;52.494;7.546;2023-06-01T04:55:09;1999.90;;;999.90;;
40787;SDS011;26497;52.494;7.546;2023-06-01T04:57:38;1999.90;;;999.90;;
40787;SDS011;26497;52.494;7.546;2023-06-01T05:00:08;1999.90;;;999.90;;
40787;SDS011;26497;52.494;7.546;2023-06-01T05:02:38;1999.90;;;999.90;;
40787;SDS011;26497;52.494;7.546;2023-06-01T05:05:07;1999.90;;;999.90;;
40787;SDS011;26497;52.494;7.546;2023-06-01T05:07:35;1999.90;;;999.90;;
40787;SDS011;26497;52.494;7.546;2023-06-01T05:10:05;1999.90;;;999.90;;
40787;SDS011;26497;52.494;7.546;2023-06-01T05:15:03;1999.90;;;999.90;;
40787;SDS011;26497;52.494;7.546;2023-06-01T05:17:35;1999.90;;;999.90;;
40787;SDS011;26497;52.494;7.546;2023-06-01T05:20:03;1999.90;;;999.90;;
40787;SDS011;26497;52.494;7.546;2023-06-01T05:22:33;1999.90;;;999.90;;
40787;SDS011;26497;52.494;7.546;2023-06-01T05:25:01;1999.90;;;999.90;;
40787;SDS011;26497;52.494;7.546;2023-06-01T05:27:32;1999.90;;;999.90;;
40787;SDS011;26497;52.494;7.546;2023-06-01T05:29:59;1999.90;;;999.90;;
40787;SDS011;26497;52.494;7.546;2023-06-01T05:32:26;1999.90;;;999.90;;
40787;SDS011;26497;52.494;7.546;2023-06-01T05:34:53;1999.90;;;999.90;;
40787;SDS011;26497;52.494;7.546;2023-06-01T05:37:20;1999.90;;;999.90;;
40787;SDS011;26497;52.494;7.546;2023-06-01T05:39:48;1999.90;;;999.90;;
40787;SDS011;26497;52.494;7.546;2023-06-01T05:42:15;1999.90;;;999.90;;
40787;SDS011;26497;52.494;7.546;2023-06-01T05:44:44;1999.90;;;999.90;;
40787;SDS011;26497;52.494;7.546;2023-06-01T05:47:11;1999.90;;;999.90;;
40787;SDS011;26497;52.494;7.546;2023-06-01T05:49:38;1999.90;;;999.90;;
40787;SDS011;26497;52.494;7.546;2023-06-01T05:52:05;1999.90;;;999.90;;
40787;SDS011;26497;52.494;7.546;2023-06-01T05:54:33;1999.90;;;999.90;;
40787;SDS011;26497;52.494;7.546;2023-06-01T05:57:00;1999.90;;;999.90;;
40787;SDS011;26497;52.494;7.546;2023-06-01T05:59:27;1999.90;;;999.90;;
40787;SDS011;26497;52.494;7.546;2023-06-01T06:01:56;1999.90;;;999.90;;
40787;SDS011;26497;52.494;7.546;2023-06-01T06:04:23;1999.90;;;999.90;;
40787;SDS011;26497;52.494;7.546;2023-06-01T06:06:50;1999.90;;;999.90;;
40787;SDS011;26497;52.494;7.546;2023-06-01T06:09:17;1999.90;;;999.90;;
40787;SDS011;26497;52.494;7.546;2023-06-01T06:11:44;1999.90;;;999.90;;
40787;SDS011;26497;52.494;7.546;2023-06-01T06:14:12;1999.90;;;999.90;;
40787;SDS011;26497;52.494;7.546;2023-06-01T06:16:39;1999.90;;;999.90;;
40787;SDS011;26497;52.494;7.546;2023-06-01T06:19:09;1999.90;;;999.90;;
40787;SDS011;26497;52.494;7.546;2023-06-01T06:21:37;1999.90;;;999.90;;
40787;SDS011;26497;52.494;7.546;2023-06-01T06:24:04;1999.90;;;999.90;;
40787;SDS011;26497;52.494;7.546;2023-06-01T06:26:31;1999.90;;;999.90;;
40787;SDS011;26497;52.494;7.546;2023-06-01T06:28:58;1999.90;;;999.90;;
40787;SDS011;26497;52.494;7.546;2023-06-01T06:31:26;1999.90;;;999.90;;
40787;SDS011;26497;52.494;7.546;2023-06-01T06:33:53;1999.90;;;999.90;;
40787;SDS011;26497;52.494;7.546;2023-06-01T06:36:22;1999.90;;;999.90;;
40787;SDS011;26497;52.494;7.546;2023-06-01T06:38:49;1999.90;;;999.90;;
40787;SDS011;26497;52.494;7.546;2023-06-01T06:41:16;1999.90;;;999.90;;
40787;SDS011;26497;52.494;7.546;2023-06-01T06:43:43;1999.90;;;999.90;;
40787;SDS011;26497;52.494;7.546;2023-06-01T06:46:10;1999.90;;;999.90;;
40787;SDS011;26497;52.494;7.546;2023-06-01T06:48:38;1999.90;;;999.90;;
40787;SDS011;26497;52.494;7.546;2023-06-01T06:51:05;1999.90;;;999.90;;
40787;SDS011;26497;52.494;7.546;2023-06-01T06:53:33;1999.90;;;999.90;;
40787;SDS011;26497;52.494;7.546;2023-06-01T06:56:00;1999.90;;;999.90;;
40787;SDS011;26497;52.494;7.546;2023-06-01T06:58:28;1999.90;;;999.90;;
40787;SDS011;26497;52.494;7.546;2023-06-01T07:00:55;1999.90;;;999.90;;
40787;SDS011;26497;52.494;7.546;2023-06-01T07:03:22;1999.90;;;999.90;;
40787;SDS011;26497;52.494;7.546;2023-06-01T07:05:51;1999.90;;;999.90;;
40787;SDS011;26497;52.494;7.546;2023-06-01T07:08:18;1999.90;;;999.90;;
40787;SDS011;26497;52.494;7.546;2023-06-01T07:10:47;1999.90;;;999.90;;
40787;SDS011;26497;52.494;7.546;2023-06-01T07:13:14;1999.90;;;999.90;;
40787;SDS011;26497;52.494;7.546;2023-06-01T07:15:41;1999.90;;;999.90;;
40787;SDS011;26497;52.494;7.546;2023-06-01T07:18:08;1999.90;;;999.90;;
40787;SDS011;26497;52.494;7.546;2023-06-01T07:20:36;1999.90;;;999.90;;
40787;SDS011;26497;52.494;7.546;2023-06-01T07:23:03;1999.90;;;999.90;;
40787;SDS011;26497;52.494;7.546;2023-06-01T07:25:30;1999.90;;;999.90;;
40787;SDS011;26497;52.494;7.546;2023-06-01T07:27:58;1999.90;;;999.90;;
40787;SDS011;26497;52.494;7.546;2023-06-01T07:30:32;1999.90;;;999.90;;
40787;SDS011;26497;52.494;7.546;2023-06-01T07:32:59;1999.90;;;999.90;;
40787;SDS011;26497;52.494;7.546;2023-06-01T07:35:28;1999.90;;;999.90;;
40787;SDS011;26497;52.494;7.546;2023-06-01T07:37:55;1999.90;;;999.90;;
40787;SDS011;26497;52.494;7.546;2023-06-01T07:40:23;1999.90;;;999.90;;
40787;SDS011;26497;52.494;7.546;2023-06-01T07:42:50;1999.90;;;999.90;;
40787;SDS011;26497;52.494;7.546;2023-06-01T07:45:21;1999.90;;;999.90;;
40787;SDS011;26497;52.494;7.546;2023-06-01T07:47:48;1999.90;;;999.90;;
40787;SDS011;26497;52.494;7.546;2023-06-01T07:50:16;1999.90;;;999.90;;
40787;SDS011;26497;52.494;7.546;2023-06-01T07:52:44;1999.90;;;999.90;;
40787;SDS011;26497;52.494;7.546;2023-06-01T07:55:11;1999.90;;;999.90;;
40787;SDS011;26497;52.494;7.546;2023-06-01T07:57:41;1999.90;;;999.90;;
40787;SDS011;26497;52.494;7.546;2023-06-01T08:00:11;1999.90;;;999.90;;
40787;SDS011;26497;52.494;7.546;2023-06-01T08:02:43;1999.90;;;999.90;;
40787;SDS011;26497;52.494;7.546;2023-06-01T08:05:11;1999.90;;;999.90;;
40787;SDS011;26497;52.494;7.546;2023-06-01T08:07:39;1999.90;;;999.90;;
40787;SDS011;26497;52.494;7.546;2023-06-01T08:10:07;1999.90;;;999.90;;
40787;SDS011;26497;52.494;7.546;2023-06-01T08:12:35;1999.90;;;999.90;;
40787;SDS011;26497;52.494;7.546;2023-06-01T08:15:02;1999.90;;;999.90;;
40787;SDS011;26497;52.494;7.546;2023-06-01T08:17:30;1999.90;;;999.90;;
40787;SDS011;26497;52.494;7.546;2023-06-01T08:19:59;1999.90;;;999.90;;
40787;SDS011;26497;52.494;7.546;2023-06-01T08:22:32;1999.90;;;999.90;;
40787;SDS011;26497;52.494;7.546;2023-06-01T08:25:00;1999.90;;;999.90;;
40787;SDS011;26497;52.494;7.546;2023-06-01T08:27:27;1999.90;;;999.90;;
40787;SDS011;26497;52.494;7.546;2023-06-01T08:29:54;1999.90;;;999.90;;
40787;SDS011;26497;52.494;7.546;2023-06-01T08:32:21;1999.90;;;999.90;;
40787;SDS011;26497;52.494;7.546;2023-06-01T08:34:48;1999.90;;;999.90;;
40787;SDS011;26497;52.494;7.546;2023-06-01T08:37:17;1999.90;;;999.90;;
40787;SDS011;26497;52.494;7.546;2023-06-01T08:39:44;1999.90;;;999.90;;
40787;SDS011;26497;52.494;7.546;2023-06-01T08:42:13;1999.90;;;999.90;;
40787;SDS011;26497;52.494;7.546;2023-06-01T08:44:50;1999.90;;;999.90;;
40787;SDS011;26497;52.494;7.546;2023-06-01T08:47:19;1999.90;;;999.90;;
40787;SDS011;26497;52.494;7.546;2023-06-01T08:49:48;1999.90;;;999.90;;
40787;SDS011;26497;52.494;7.546;2023-06-01T08:52:18;1999.90;;;999.90;;
40787;SDS011;26497;52.494;7.546;2023-06-01T08:57:15;1999.90;;;999.90;;
40787;SDS011;26497;52.494;7.546;2023-06-01T08:59:43;1999.90;;;999.90;;
40787;SDS011;26497;52.494;7.546;2023-06-01T09:02:13;1999.90;;;999.90;;
40787;SDS011;26497;52.494;7.546;2023-06-01T09:04:40;1999.90;;;999.90;;
40787;SDS011;26497;52.494;7.546;2023-06-01T09:07:09;1999.90;;;999.90;;
40787;SDS011;26497;52.494;7.546;2023-06-01T09:09:38;1999.90;;;999.90;;
40787;SDS011;26497;52.494;7.546;2023-06-01T09:12:21;1999.90;;;999.90;;
40787;SDS011;26497;52.494;7.546;2023-06-01T09:14:51;1999.90;;;999.90;;
40787;SDS011;26497;52.494;7.546;2023-06-01T09:17:34;1999.90;;;999.90;;
40787;SDS011;26497;52.494;7.546;2023-06-01T09:20:01;1999.90;;;999.90;;
40787;SDS011;26497;52.494;7.546;2023-06-01T09:22:40;1999.90;;;999.90;;
40787;SDS011;26497;52.494;7.546;2023-06-01T09:25:10;1999.90;;;999.90;;
40787;SDS011;26497;52.494;7.546;2023-06-01T09:27:43;1999.90;;;999.90;;
40787;SDS011;26497;52.494;7.546;2023-06-01T09:30:14;1999.90;;;999.90;;
40787;SDS011;26497;52.494;7.546;2023-06-01T09:32:42;1999.90;;;999.90;;
40787;SDS011;26497;52.494;7.546;2023-06-01T09:35:13;1999.90;;;999.90;;
40787;SDS011;26497;52.494;7.546;2023-06-01T09:37:53;1999.90;;;999.90;;
40787;SDS011;26497;52.494;7.546;2023-06-01T09:42:50;1999.90;;;999.90;;
40787;SDS011;26497;52.494;7.546;2023-06-01T09:45:18;1999.90;;;999.90;;
40787;SDS011;26497;52.494;7.546;2023-06-01T09:47:47;1999.90;;;999.90;;
40787;SDS011;26497;52.494;7.546;2023-06-01T09:50:33;1999.90;;;999.90;;
40787;SDS011;26497;52.494;7.546;2023-06-01T09:53:02;1999.90;;;999.90;;
40787;SDS011;26497;52.494;7.546;2023-06-01T09:55:32;1999.90;;;999.90;;
40787;SDS011;26497;52.494;7.546;2023-06-01T10:00:45;1999.90;;;999.90;;
40787;SDS011;26497;52.494;7.546;2023-06-01T10:03:13;1999.90;;;999.90;;
40787;SDS011;26497;52.494;7.546;2023-06-01T10:05:42;1999.90;;;999.90;;
40787;SDS011;26497;52.494;7.546;2023-06-01T10:08:10;1999.90;;;999.90;;
40787;SDS011;26497;52.494;7.546;2023-06-01T10:10:42;1999.90;;;999.90;;
40787;SDS011;26497;52.494;7.546;2023-06-01T10:13:11;1999.90;;;999.90;;
40787;SDS011;26497;52.494;7.546;2023-06-01T10:15:38;1999.90;;;999.90;;
40787;SDS011;26497;52.494;7.546;2023-06-01T10:18:06;1999.90;;;999.90;;
40787;SDS011;26497;52.494;7.546;2023-06-01T10:20:34;1999.90;;;999.90;;
40787;SDS011;26497;52.494;7.546;2023-06-01T10:23:03;1999.90;;;999.90;;
40787;SDS011;26497;52.494;7.546;2023-06-01T10:25:50;1999.90;;;999.90;;
40787;SDS011;26497;52.494;7.546;2023-06-01T10:28:20;1999.90;;;999.90;;
40787;SDS011;26497;52.494;7.546;2023-06-01T10:34:03;1999.90;;;999.90;;
40787;SDS011;26497;52.494;7.546;2023-06-01T10:39:43;1999.90;;;999.90;;
40787;SDS011;26497;52.494;7.546;2023-06-01T10:48:04;1999.90;;;999.90;;
40787;SDS011;26497;52.494;7.546;2023-06-01T10:50:33;1999.90;;;999.90;;
40787;SDS011;26497;52.494;7.546;2023-06-01T10:56:17;1999.90;;;999.90;;
40787;SDS011;26497;52.494;7.546;2023-06-01T10:59:00;1999.90;;;999.90;;
40787;SDS011;26497;52.494;7.546;2023-06-01T11:01:37;1999.90;;;999.90;;
40787;SDS011;26497;52.494;7.546;2023-06-01T11:04:07;1999.90;;;999.90;;
40787;SDS011;26497;52.494;7.546;2023-06-01T11:06:36;1999.90;;;999.90;;
40787;SDS011;26497;52.494;7.546;2023-06-01T11:09:06;1999.90;;;999.90;;
40787;SDS011;26497;52.494;7.546;2023-06-01T11:11:56;1999.90;;;999.90;;
40787;SDS011;26497;52.494;7.546;2023-06-01T11:14:26;1999.90;;;999.90;;
40787;SDS011;26497;52.494;7.546;2023-06-01T11:17:25;1999.90;;;999.90;;
40787;SDS011;26497;52.494;7.546;2023-06-01T11:19:58;1999.90;;;999.90;;
40787;SDS011;26497;52.494;7.546;2023-06-01T11:22:34;1999.90;;;999.90;;
40787;SDS011;26497;52.494;7.546;2023-06-01T11:25:04;1999.90;;;999.90;;
40787;SDS011;26497;52.494;7.546;2023-06-01T11:27:33;1999.90;;;999.90;;
40787;SDS011;26497;52.494;7.546;2023-06-01T11:30:11;1999.90;;;999.90;;
40787;SDS011;26497;52.494;7.546;2023-06-01T11:32:44;1999.90;;;999.90;;
40787;SDS011;26497;52.494;7.546;2023-06-01T11:35:17;1999.90;;;999.90;;
40787;SDS011;26497;52.494;7.546;2023-06-01T11:37:45;1999.90;;;999.90;;
40787;SDS011;26497;52.494;7.546;2023-06-01T11:40:14;1999.90;;;999.90;;
40787;SDS011;26497;52.494;7.546;2023-06-01T11:42:42;1999.90;;;999.90;;
40787;SDS011;26497;52.494;7.546;2023-06-01T11:45:14;1999.90;;;999.90;;
40787;SDS011;26497;52.494;7.546;2023-06-01T11:47:42;1999.90;;;999.90;;
40787;SDS011;26497;52.494;7.546;2023-06-01T11:50:19;1999.90;;;999.90;;
40787;SDS011;26497;52.494;7.546;2023-06-01T11:52:50;1999.90;;;999.90;;
40787;SDS011;26497;52.494;7.546;2023-06-01T11:55:17;1999.90;;;999.90;;
40787;SDS011;26497;52.494;7.546;2023-06-01T11:57:44;1999.90;;;999.90;;
40787;SDS011;26497;52.494;7.546;2023-06-01T12:00:15;1999.90;;;999.90;;
40787;SDS011;26497;52.494;7.546;2023-06-01T12:02:44;1999.90;;;999.90;;
40787;SDS011;26497;52.494;7.546;2023-06-01T12:05:11;1999.90;;;999.90;;
40787;SDS011;26497;52.494;7.546;2023-06-01T12:07:42;1999.90;;;999.90;;
40787;SDS011;26497;52.494;7.546;2023-06-01T12:10:11;1999.90;;;999.90;;
40787;SDS011;26497;52.494;7.546;2023-06-01T12:12:41;1999.90;;;999.90;;
40787;SDS011;26497;52.494;7.546;2023-06-01T12:15:09;1999.90;;;999.90;;
40787;SDS011;26497;52.494;7.546;2023-06-01T12:17:48;1999.90;;;999.90;;
40787;SDS011;26497;52.494;7.546;2023-06-01T12:20:27;1999.90;;;999.90;;
40787;SDS011;26497;52.494;7.546;2023-06-01T12:22:55;1999.90;;;999.90;;
40787;SDS011;26497;52.494;7.546;2023-06-01T12:25:23;1999.90;;;999.90;;
40787;SDS011;26497;52.494;7.546;2023-06-01T12:28:03;1999.90;;;999.90;;
40787;SDS011;26497;52.494;7.546;2023-06-01T12:30:31;1999.90;;;999.90;;
40787;SDS011;26497;52.494;7.546;2023-06-01T12:33:00;1999.90;;;999.90;;
40787;SDS011;26497;52.494;7.546;2023-06-01T12:35:29;1999.90;;;999.90;;
40787;SDS011;26497;52.494;7.546;2023-06-01T12:38:06;1999.90;;;999.90;;
40787;SDS011;26497;52.494;7.546;2023-06-01T12:40:36;1999.90;;;999.90;;
40787;SDS011;26497;52.494;7.546;2023-06-01T12:43:05;1999.90;;;999.90;;
40787;SDS011;26497;52.494;7.546;2023-06-01T12:45:43;1999.90;;;999.90;;
40787;SDS011;26497;52.494;7.546;2023-06-01T12:50:58;1999.90;;;999.90;;
40787;SDS011;26497;52.494;7.546;2023-06-01T12:53:25;1999.90;;;999.90;;
40787;SDS011;26497;52.494;7.546;2023-06-01T12:55:54;1999.90;;;999.90;;
40787;SDS011;26497;52.494;7.546;2023-06-01T12:58:21;1999.90;;;999.90;;
40787;SDS011;26497;52.494;7.546;2023-06-01T13:00:48;1999.90;;;999.90;;
40787;SDS011;26497;52.494;7.546;2023-06-01T13:03:15;1999.90;;;999.90;;
40787;SDS011;26497;52.494;7.546;2023-06-01T13:05:43;1999.90;;;999.90;;
40787;SDS011;26497;52.494;7.546;2023-06-01T13:08:11;1999.90;;;999.90;;
40787;SDS011;26497;52.494;7.546;2023-06-01T13:10:39;1999.90;;;999.90;;
40787;SDS011;26497;52.494;7.546;2023-06-01T13:13:06;1999.90;;;999.90;;
40787;SDS011;26497;52.494;7.546;2023-06-01T13:15:34;1999.90;;;999.90;;
40787;SDS011;26497;52.494;7.546;2023-06-01T13:18:01;1999.90;;;999.90;;
40787;SDS011;26497;52.494;7.546;2023-06-01T13:20:28;1999.90;;;999.90;;
40787;SDS011;26497;52.494;7.546;2023-06-01T13:22:57;1999.90;;;999.90;;
40787;SDS011;26497;52.494;7.546;2023-06-01T13:25:24;1999.90;;;999.90;;
40787;SDS011;26497;52.494;7.546;2023-06-01T13:27:51;1999.90;;;999.90;;
40787;SDS011;26497;52.494;7.546;2023-06-01T13:30:19;1999.90;;;999.90;;
40787;SDS011;26497;52.494;7.546;2023-06-01T13:32:46;1999.90;;;999.90;;
40787;SDS011;26497;52.494;7.546;2023-06-01T13:35:13;1999.90;;;999.90;;
40787;SDS011;26497;52.494;7.546;2023-06-01T13:37:40;1999.90;;;999.90;;
40787;SDS011;26497;52.494;7.546;2023-06-01T13:40:09;1999.90;;;999.90;;
40787;SDS011;26497;52.494;7.546;2023-06-01T13:42:37;1999.90;;;999.90;;
40787;SDS011;26497;52.494;7.546;2023-06-01T13:45:05;1999.90;;;999.90;;
40787;SDS011;26497;52.494;7.546;2023-06-01T13:47:33;1999.90;;;999.90;;
40787;SDS011;26497;52.494;7.546;2023-06-01T13:50:00;1999.90;;;999.90;;
40787;SDS011;26497;52.494;7.546;2023-06-01T13:52:28;1999.90;;;999.90;;
40787;SDS011;26497;52.494;7.546;2023-06-01T13:54:56;1999.90;;;999.90;;
40787;SDS011;26497;52.494;7.546;2023-06-01T13:57:24;1999.90;;;999.90;;
40787;SDS011;26497;52.494;7.546;2023-06-01T13:59:52;1999.90;;;999.90;;
40787;SDS011;26497;52.494;7.546;2023-06-01T14:02:19;1999.90;;;999.90;;
40787;SDS011;26497;52.494;7.546;2023-06-01T14:04:46;1999.90;;;999.90;;
40787;SDS011;26497;52.494;7.546;2023-06-01T14:07:13;1999.90;;;999.90;;
40787;SDS011;26497;52.494;7.546;2023-06-01T14:09:40;1999.90;;;999.90;;
40787;SDS011;26497;52.494;7.546;2023-06-01T14:12:08;1999.90;;;999.90;;
40787;SDS011;26497;52.494;7.546;2023-06-01T14:14:38;1999.90;;;999.90;;
40787;SDS011;26497;52.494;7.546;2023-06-01T14:17:05;1999.90;;;999.90;;
40787;SDS011;26497;52.494;7.546;2023-06-01T14:19:32;1999.90;;;999.90;;
40787;SDS011;26497;52.494;7.546;2023-06-01T14:21:59;1999.90;;;999.90;;
40787;SDS011;26497;52.494;7.546;2023-06-01T14:24:27;1999.90;;;999.90;;
40787;SDS011;26497;52.494;7.546;2023-06-01T14:26:54;1999.90;;;999.90;;
40787;SDS011;26497;52.494;7.546;2023-06-01T14:29:21;1999.90;;;999.90;;
40787;SDS011;26497;52.494;7.546;2023-06-01T14:31:49;1999.90;;;999.90;;